Time;durP1;ratioP1;P1;durP2;ratioP2;P2;SDS_P1;SDS_P2;PMS_P1;PMS_P2;Temp;Humidity;BMP_temperature;BMP_pressure;BME280_temperature;BME280_humidity;BME280_pressure;Samples;Min_cycle;Max_cycle;Signal;HPM_P1;HPM_P2
2021/11/16 00:01:20;;;;;;;2.25;0.70;;;21.60;42.90;;;;;;4962979;28;20236;-72
2021/11/16 00:03:47;;;;;;;4.38;1.00;;;22.10;41.90;;;;;;4960791;28;20027;-71
2021/11/16 00:06:14;;;;;;;5.50;1.35;;;22.40;43.60;;;;;;4956711;28;20437;-72
2021/11/16 00:08:41;;;;;;;3.25;1.10;;;22.70;41.10;;;;;;4964562;28;20033;-71
2021/11/16 00:11:08;;;;;;;3.97;0.93;;;22.50;40.20;;;;;;4967038;28;20502;-69
2021/11/16 00:13:35;;;;;;;2.92;0.98;;;22.40;41.60;;;;;;4966093;28;20118;-71
2021/11/16 00:16:03;;;;;;;3.65;0.95;;;22.80;41.50;;;;;;4962617;28;20031;-68
2021/11/16 00:18:31;;;;;;;0.75;0.50;;;22.90;39.50;;;;;;4966129;28;20213;-74
2021/11/16 00:21:00;;;;;;;4.63;1.52;;;23.40;41.10;;;;;;4966802;28;20043;-73
2021/11/16 00:23:33;;;;;;;1.83;0.80;;;23.70;41.10;;;;;;4964047;28;20034;-72
2021/11/16 00:26:02;;;;;;;3.83;0.70;;;23.50;39.50;;;;;;4960465;28;20035;-71
2021/11/16 00:28:29;;;;;;;2.67;0.80;;;23.70;41.60;;;;;;4963694;28;20023;-71
2021/11/16 00:30:56;;;;;;;3.35;0.82;;;23.30;39.20;;;;;;4962456;28;20019;-69
2021/11/16 00:33:24;;;;;;;2.80;0.90;;;23.60;40.10;;;;;;4963685;28;20500;-73
2021/11/16 00:35:51;;;;;;;5.00;0.80;;;23.80;38.70;;;;;;4966982;28;20034;-71
2021/11/16 00:38:19;;;;;;;0.90;0.70;;;23.90;39.60;;;;;;4963605;28;20082;-72
2021/11/16 00:40:47;;;;;;;2.08;0.80;;;24.10;39.10;;;;;;4968111;28;20586;-69
2021/11/16 00:43:15;;;;;;;2.22;0.60;;;23.90;38.90;;;;;;4967310;28;20370;-69
2021/11/16 00:45:46;;;;;;;2.03;0.70;;;23.70;39.00;;;;;;4963683;28;20026;-69
2021/11/16 00:48:16;;;;;;;1.42;0.70;;;24.30;40.10;;;;;;4963152;28;20038;-71
2021/11/16 00:50:45;;;;;;;2.85;0.80;;;24.20;38.00;;;;;;4956945;28;20465;-72
2021/11/16 00:53:12;;;;;;;1.48;0.55;;;23.80;38.20;;;;;;4963400;28;20026;-72
2021/11/16 00:55:39;;;;;;;2.92;0.95;;;23.60;38.00;;;;;;4965995;28;20096;-74
2021/11/16 00:58:06;;;;;;;3.42;0.95;;;23.30;39.20;;;;;;4967546;28;20477;-71
2021/11/16 01:00:33;;;;;;;1.25;0.75;;;23.90;39.00;;;;;;4967668;28;20027;-69
2021/11/16 01:03:00;;;;;;;4.90;0.77;;;24.20;38.20;;;;;;4965871;28;20018;-70
2021/11/16 01:05:27;;;;;;;5.20;1.02;;;24.20;37.70;;;;;;4968000;28;20034;-73
2021/11/16 01:07:54;;;;;;;2.80;1.10;;;23.70;39.50;;;;;;4968020;28;20030;-72
2021/11/16 01:10:22;;;;;;;4.90;1.17;;;24.40;39.80;;;;;;4963667;28;20031;-69
2021/11/16 01:12:50;;;;;;;4.65;1.25;;;25.00;37.40;;;;;;4966286;28;20042;-68
2021/11/16 01:15:18;;;;;;;2.58;1.00;;;25.70;35.90;;;;;;4968562;28;20027;-71
2021/11/16 01:17:46;;;;;;;5.10;1.17;;;25.70;37.80;;;;;;4967444;28;20109;-68
2021/11/16 01:20:15;;;;;;;2.38;0.98;;;25.60;37.90;;;;;;4964920;28;20069;-69
2021/11/16 01:22:56;;;;;;;1.30;0.90;;;25.60;37.00;;;;;;5107102;27;20471;-71
2021/11/16 01:25:24;;;;;;;3.20;0.93;;;25.30;37.20;;;;;;5105775;28;20038;-70
2021/11/16 01:27:54;;;;;;;5.78;0.95;;;24.40;37.80;;;;;;5103886;28;20024;-71
2021/11/16 01:30:22;;;;;;;1.50;0.77;;;24.10;39.20;;;;;;5107480;28;20024;-69
2021/11/16 01:33:03;;;;;;;1.90;0.90;;;24.20;38.50;;;;;;5105393;28;20077;-72
2021/11/16 01:35:32;;;;;;;2.88;0.73;;;24.70;38.40;;;;;;5106279;28;20127;-69
2021/11/16 01:38:00;;;;;;;1.17;0.60;;;25.50;37.80;;;;;;5104642;28;20103;-71
2021/11/16 01:40:27;;;;;;;2.10;0.90;;;25.90;35.90;;;;;;5105737;28;20018;-69
2021/11/16 01:42:56;;;;;;;3.92;1.15;;;25.60;37.00;;;;;;5104025;28;20038;-71
2021/11/16 01:45:24;;;;;;;1.73;0.82;;;25.90;39.30;;;;;;5107204;28;20416;-69
2021/11/16 01:47:52;;;;;;;5.63;2.70;;;26.40;36.60;;;;;;5104743;28;20426;-71
2021/11/16 01:50:22;;;;;;;4.22;1.20;;;27.00;38.30;;;;;;5104352;28;20106;-74
2021/11/16 01:52:51;;;;;;;3.85;1.05;;;27.30;36.80;;;;;;5106668;28;20474;-71
2021/11/16 01:55:20;;;;;;;2.15;0.90;;;27.70;36.20;;;;;;5104276;28;20082;-71
2021/11/16 01:57:48;;;;;;;2.38;0.95;;;27.90;33.90;;;;;;5102582;28;20097;-69
2021/11/16 02:00:26;;;;;;;7.15;1.98;;;28.30;36.30;;;;;;5105752;28;20044;-71
2021/11/16 02:02:53;;;;;;;4.35;1.40;;;28.30;34.60;;;;;;5105838;28;20432;-74
2021/11/16 02:05:34;;;;;;;3.08;1.10;;;28.40;35.50;;;;;;5104183;28;20016;-69
2021/11/16 02:08:01;;;;;;;5.72;0.88;;;28.00;33.10;;;;;;5106631;28;20027;-72
2021/11/16 02:10:28;;;;;;;4.25;1.30;;;26.90;35.30;;;;;;5104531;28;20016;-69
2021/11/16 02:12:55;;;;;;;2.92;1.02;;;26.70;34.00;;;;;;5104256;28;20034;-72
2021/11/16 02:15:24;;;;;;;5.75;3.40;;;25.90;35.50;;;;;;5106432;28;20058;-68
2021/11/16 02:17:51;;;;;;;3.75;1.00;;;25.20;37.10;;;;;;5104006;28;20028;-70
2021/11/16 02:20:19;;;;;;;3.28;1.10;;;24.70;37.30;;;;;;5103957;28;20127;-72
2021/11/16 02:22:47;;;;;;;7.40;1.13;;;24.40;38.50;;;;;;5103258;28;20524;-72
2021/11/16 02:25:14;;;;;;;2.22;0.80;;;24.20;38.90;;;;;;5105874;28;20151;-71
2021/11/16 02:27:41;;;;;;;3.78;0.77;;;24.40;38.00;;;;;;5103291;28;20637;-69
2021/11/16 02:30:09;;;;;;;2.25;1.02;;;24.70;37.20;;;;;;5105726;28;20015;-69
2021/11/16 02:32:36;;;;;;;1.73;0.82;;;24.60;37.80;;;;;;5100026;27;20026;-70
2021/11/16 02:35:04;;;;;;;2.10;1.05;;;24.80;37.20;;;;;;5090703;28;20040;-71
2021/11/16 02:37:32;;;;;;;1.80;0.65;;;25.00;37.40;;;;;;5091190;28;20061;-73
2021/11/16 02:40:01;;;;;;;4.45;1.20;;;26.00;35.80;;;;;;5090040;28;20494;-72
2021/11/16 02:42:28;;;;;;;2.08;0.77;;;26.00;35.60;;;;;;5090189;28;20023;-71
2021/11/16 02:44:55;;;;;;;2.20;0.90;;;25.90;35.50;;;;;;5093185;28;20020;-70
2021/11/16 02:47:22;;;;;;;2.28;0.85;;;25.40;35.80;;;;;;5091942;28;20028;-69
2021/11/16 02:49:49;;;;;;;2.30;0.90;;;25.70;36.50;;;;;;5090435;28;20042;-70
2021/11/16 02:52:16;;;;;;;3.97;1.00;;;26.50;38.30;;;;;;5093643;28;20063;-72
2021/11/16 02:54:43;;;;;;;3.10;0.90;;;27.20;38.00;;;;;;5089729;28;20027;-74
2021/11/16 02:57:12;;;;;;;3.88;1.27;;;26.40;40.40;;;;;;5094451;28;20024;-70
2021/11/16 02:59:41;;;;;;;3.10;1.05;;;25.60;41.80;;;;;;5090422;28;20470;-71
2021/11/16 03:02:12;;;;;;;3.80;1.30;;;24.70;42.50;;;;;;5090914;28;20031;-71
2021/11/16 03:04:50;;;;;;;5.25;2.30;;;23.80;44.30;;;;;;5094656;28;20553;-71
2021/11/16 03:07:40;;;;;;;6.10;1.27;;;23.40;44.70;;;;;;5091708;28;20066;-70
2021/11/16 03:10:08;;;;;;;3.15;1.02;;;23.20;44.40;;;;;;5091284;28;20027;-70
2021/11/16 03:12:35;;;;;;;1.95;1.05;;;23.00;45.00;;;;;;5096954;28;20035;-70
2021/11/16 03:15:04;;;;;;;2.13;1.00;;;22.70;45.10;;;;;;5093262;28;20373;-72
2021/11/16 03:17:34;;;;;;;3.97;2.38;;;22.60;46.00;;;;;;5092179;28;20071;-70
2021/11/16 03:20:01;;;;;;;4.40;1.50;;;22.60;46.80;;;;;;5090538;28;20058;-69
2021/11/16 03:22:35;;;;;;;4.05;0.70;;;23.10;44.40;;;;;;5097788;28;20085;-71
2021/11/16 03:25:02;;;;;;;1.30;0.80;;;22.80;45.60;;;;;;5092167;28;20351;-71
2021/11/16 03:27:34;;;;;;;5.72;1.50;;;22.60;47.40;;;;;;5086611;28;20069;-71
2021/11/16 03:30:01;;;;;;;1.85;1.02;;;23.10;47.10;;;;;;5089827;28;20027;-70
2021/11/16 03:32:35;;;;;;;5.65;1.15;;;24.20;44.60;;;;;;5091574;28;20028;-71
2021/11/16 03:35:03;;;;;;;5.47;1.05;;;24.80;43.70;;;;;;5090154;28;20371;-69
2021/11/16 03:37:40;;;;;;;2.85;0.93;;;24.80;44.80;;;;;;5089959;28;20145;-72
2021/11/16 03:40:09;;;;;;;5.85;0.93;;;25.00;43.70;;;;;;5089078;28;20028;-72
2021/11/16 03:42:40;;;;;;;5.35;1.23;;;25.10;44.50;;;;;;5089417;28;20031;-72
2021/11/16 03:45:08;;;;;;;3.38;1.20;;;25.30;42.40;;;;;;5088313;28;20017;-69
2021/11/16 03:47:35;;;;;;;5.15;2.05;;;25.00;46.40;;;;;;5089225;28;20035;-69
2021/11/16 03:50:05;;;;;;;3.60;1.17;;;25.10;44.20;;;;;;5089719;28;20020;-72
2021/11/16 03:52:35;;;;;;;1.73;0.75;;;25.00;44.40;;;;;;5089324;28;20020;-68
2021/11/16 03:55:03;;;;;;;2.97;1.08;;;24.10;45.00;;;;;;5094698;28;20024;-70
2021/11/16 03:57:30;;;;;;;2.05;0.60;;;24.40;45.20;;;;;;5089355;28;20023;-69
2021/11/16 03:59:57;;;;;;;4.72;1.20;;;24.40;44.30;;;;;;5096451;28;20505;-70
2021/11/16 04:02:25;;;;;;;4.85;1.13;;;24.10;45.70;;;;;;5089239;28;20049;-71
2021/11/16 04:04:54;;;;;;;3.80;1.10;;;23.70;46.60;;;;;;5089229;28;20031;-70
2021/11/16 04:07:21;;;;;;;5.38;1.02;;;23.50;45.60;;;;;;5090174;28;20016;-72
2021/11/16 04:09:48;;;;;;;2.65;1.40;;;23.60;47.60;;;;;;5092247;28;20031;-68
2021/11/16 04:12:16;;;;;;;3.05;1.00;;;24.10;47.10;;;;;;5090551;28;20161;-71
2021/11/16 04:14:44;;;;;;;3.63;1.10;;;24.10;45.20;;;;;;5097675;28;20594;-70
2021/11/16 04:17:10;;;;;;;5.25;1.00;;;23.50;45.80;;;;;;5088680;28;20351;-68
2021/11/16 04:19:37;;;;;;;3.10;1.02;;;23.40;47.40;;;;;;5088285;28;20028;-69
2021/11/16 04:22:05;;;;;;;2.30;1.00;;;23.50;46.90;;;;;;5089262;28;20089;-73
2021/11/16 04:24:32;;;;;;;3.40;1.15;;;23.30;45.90;;;;;;5088441;28;20501;-69
2021/11/16 04:26:59;;;;;;;1.95;0.85;;;23.20;47.20;;;;;;5088329;28;20047;-73
2021/11/16 04:29:26;;;;;;;8.55;1.27;;;23.40;46.60;;;;;;5089008;28;20023;-73
2021/11/16 04:31:53;;;;;;;1.92;0.88;;;23.40;45.30;;;;;;5088723;28;20119;-70
2021/11/16 04:34:20;;;;;;;2.30;1.00;;;23.30;45.70;;;;;;5091521;28;20414;-70
2021/11/16 04:36:47;;;;;;;2.60;1.08;;;23.20;45.60;;;;;;5090271;28;20382;-73
2021/11/16 04:39:15;;;;;;;2.08;0.80;;;23.10;46.00;;;;;;5088535;28;20030;-74
2021/11/16 04:41:44;;;;;;;2.13;0.95;;;23.50;46.10;;;;;;5086006;28;20067;-72
2021/11/16 04:44:12;;;;;;;3.35;0.75;;;23.70;44.20;;;;;;5093674;28;20035;-69
2021/11/16 04:46:39;;;;;;;3.97;1.23;;;23.40;45.30;;;;;;5088018;28;20031;-70
2021/11/16 04:49:14;;;;;;;3.47;0.85;;;23.50;46.00;;;;;;5086217;28;20028;-70
2021/11/16 04:59:44;;;;;;;1.92;0.80;;;23.10;45.60;;;;;;5086343;28;20085;-68
2021/11/16 05:04:56;;;;;;;3.70;0.80;;;23.90;45.40;;;;;;5086633;28;20081;-66
2021/11/16 05:07:26;;;;;;;4.97;1.40;;;24.00;44.50;;;;;;5087664;28;20047;-65
2021/11/16 05:09:57;;;;;;;4.20;1.00;;;23.70;43.40;;;;;;5091845;28;20020;-68
2021/11/16 05:12:26;;;;;;;2.38;0.90;;;23.40;44.20;;;;;;5094100;28;20103;-67
2021/11/16 05:14:54;;;;;;;1.90;0.80;;;23.20;46.90;;;;;;5088845;28;20024;-67
2021/11/16 05:17:21;;;;;;;3.70;0.95;;;23.70;44.40;;;;;;5086025;28;20127;-67
2021/11/16 05:19:48;;;;;;;2.38;0.80;;;23.80;43.70;;;;;;5099900;28;20452;-68
2021/11/16 05:22:15;;;;;;;5.32;1.00;;;23.90;43.80;;;;;;5090648;28;20044;-69
2021/11/16 05:24:42;;;;;;;5.22;1.00;;;24.00;43.80;;;;;;5089837;28;20027;-65
2021/11/16 05:27:09;;;;;;;3.92;1.00;;;23.90;44.10;;;;;;5088414;28;20024;-66
2021/11/16 05:29:37;;;;;;;9.15;1.13;;;23.60;43.90;;;;;;5090912;28;20090;-66
2021/11/16 05:32:05;;;;;;;4.07;0.60;;;23.00;45.30;;;;;;5085777;28;20065;-67
2021/11/16 05:34:31;;;;;;;5.93;1.55;;;23.10;47.00;;;;;;5088991;28;20023;-68
2021/11/16 05:36:58;;;;;;;3.03;1.20;;;23.30;44.30;;;;;;5088471;28;20042;-68
2021/11/16 05:39:26;;;;;;;4.00;0.88;;;23.40;44.90;;;;;;5090549;28;20045;-65
2021/11/16 05:41:53;;;;;;;3.47;1.15;;;23.30;45.00;;;;;;5092850;28;20569;-65
2021/11/16 05:44:20;;;;;;;2.15;1.00;;;23.30;44.60;;;;;;5096990;28;20023;-67
2021/11/16 05:46:47;;;;;;;4.32;2.05;;;23.40;44.10;;;;;;5090636;28;20274;-66
2021/11/16 05:49:14;;;;;;;2.72;1.15;;;23.00;45.40;;;;;;5093794;28;20386;-69
2021/11/16 05:51:41;;;;;;;5.07;1.23;;;23.30;44.50;;;;;;5083652;28;20040;-67
2021/11/16 05:54:16;;;;;;;3.25;0.90;;;23.20;44.20;;;;;;5085517;28;20044;-68
2021/11/16 05:56:43;;;;;;;1.95;0.57;;;23.30;44.40;;;;;;5094200;28;20045;-66
2021/11/16 05:59:11;;;;;;;2.15;0.60;;;23.00;44.60;;;;;;5089290;28;20032;-67
2021/11/16 06:01:39;;;;;;;3.08;0.90;;;22.90;44.80;;;;;;5090561;28;20031;-66
2021/11/16 06:04:07;;;;;;;3.33;0.80;;;23.10;44.30;;;;;;5095577;28;20488;-68
2021/11/16 06:06:35;;;;;;;3.47;1.15;;;22.90;44.20;;;;;;5072551;28;20489;-66
2021/11/16 06:09:05;;;;;;;1.55;0.80;;;22.80;45.50;;;;;;5085978;28;20403;-69
2021/11/16 06:11:33;;;;;;;4.20;0.85;;;23.50;44.50;;;;;;5090078;28;20024;-69
2021/11/16 06:14:00;;;;;;;2.95;0.90;;;24.20;44.40;;;;;;5092920;28;20241;-71
2021/11/16 06:16:28;;;;;;;4.22;0.90;;;24.50;44.10;;;;;;5086412;28;20102;-65
2021/11/16 06:19:00;;;;;;;4.13;0.90;;;24.00;43.50;;;;;;5088997;28;20037;-65
2021/11/16 06:21:29;;;;;;;3.47;1.17;;;23.80;43.50;;;;;;5079390;28;20058;-66
2021/11/16 06:23:56;;;;;;;4.43;0.98;;;23.80;44.20;;;;;;5083822;28;20438;-65
2021/11/16 06:26:24;;;;;;;3.08;0.80;;;24.20;43.80;;;;;;5081744;28;20424;-69
2021/11/16 06:28:51;;;;;;;4.25;1.00;;;24.10;43.70;;;;;;5091816;28;20059;-63
2021/11/16 06:31:26;;;;;;;6.22;1.30;;;24.10;44.40;;;;;;5091499;27;20031;-65
2021/11/16 06:34:00;;;;;;;3.58;0.90;;;24.30;43.70;;;;;;5086927;28;20024;-63
2021/11/16 06:36:36;;;;;;;3.00;1.25;;;24.30;43.60;;;;;;5087003;28;20083;-68
2021/11/16 06:39:12;;;;;;;3.15;0.90;;;24.60;44.10;;;;;;5088288;28;20039;-69
2021/11/16 06:41:40;;;;;;;3.03;1.20;;;24.60;43.80;;;;;;5089656;28;20036;-65
2021/11/16 06:44:08;;;;;;;5.03;1.17;;;24.80;43.50;;;;;;5092490;28;20099;-68
2021/11/16 06:46:35;;;;;;;3.03;0.73;;;24.80;43.10;;;;;;5091636;28;20024;-69
2021/11/16 06:49:06;;;;;;;2.90;0.88;;;24.70;44.10;;;;;;5090009;28;20052;-66
2021/11/16 06:51:38;;;;;;;4.03;1.15;;;24.20;44.10;;;;;;5090240;28;20585;-64
2021/11/16 06:54:09;;;;;;;4.20;1.38;;;23.60;45.90;;;;;;5082970;22;20457;-67
2021/11/16 06:56:38;;;;;;;3.63;1.40;;;23.60;45.40;;;;;;5049191;28;21003;-66
2021/11/16 06:59:05;;;;;;;3.58;1.02;;;23.70;45.50;;;;;;5047951;28;20426;-67
2021/11/16 07:01:35;;;;;;;2.92;1.23;;;23.70;46.00;;;;;;5051544;28;20037;-68
2021/11/16 07:04:05;;;;;;;3.78;0.88;;;24.00;44.80;;;;;;5040899;28;20459;-77
2021/11/16 07:06:32;;;;;;;5.07;1.50;;;23.40;46.60;;;;;;5050728;28;20033;-65
2021/11/16 07:09:00;;;;;;;1.60;0.95;;;23.40;46.00;;;;;;5047229;28;20416;-69
2021/11/16 07:11:27;;;;;;;5.47;1.30;;;23.20;47.40;;;;;;5048809;28;20029;-63
2021/11/16 07:14:13;;;;;;;3.38;1.48;;;23.30;46.90;;;;;;5051245;28;20021;-63
2021/11/16 07:17:00;;;;;;;3.75;1.10;;;23.40;46.00;;;;;;5048969;28;20032;-63
2021/11/16 07:19:48;;;;;;;2.80;1.13;;;23.90;46.70;;;;;;5048499;28;20091;-68
2021/11/16 07:22:36;;;;;;;2.92;1.27;;;24.10;45.50;;;;;;5053515;28;20021;-66
2021/11/16 07:25:21;;;;;;;4.05;1.30;;;23.80;45.90;;;;;;5044708;28;20380;-70
2021/11/16 07:27:54;;;;;;;5.40;1.40;;;23.70;47.00;;;;;;5045245;28;20141;-69
2021/11/16 07:30:32;;;;;;;3.20;1.30;;;23.80;45.90;;;;;;5047703;28;20021;-72
2021/11/16 07:33:11;;;;;;;3.38;1.00;;;23.20;46.90;;;;;;5047885;28;20029;-68
2021/11/16 07:35:39;;;;;;;3.28;1.13;;;22.60;48.10;;;;;;5049382;28;20033;-64
2021/11/16 07:38:11;;;;;;;4.30;1.17;;;22.70;47.80;;;;;;5048471;28;20185;-66
2021/11/16 07:40:43;;;;;;;4.72;1.20;;;22.50;48.40;;;;;;5054666;28;20102;-70
2021/11/16 07:43:19;;;;;;;3.90;1.13;;;22.40;49.00;;;;;;5051517;28;20040;-67
2021/11/16 07:45:48;;;;;;;3.45;1.33;;;22.90;48.70;;;;;;5048270;28;20032;-68
2021/11/16 07:48:24;;;;;;;3.20;1.23;;;23.20;48.40;;;;;;5049532;28;20056;-67
2021/11/16 07:50:57;;;;;;;3.75;1.30;;;23.10;48.60;;;;;;5053636;28;20082;-67
2021/11/16 07:53:40;;;;;;;5.15;0.75;;;23.10;47.40;;;;;;5050298;28;20081;-65
2021/11/16 07:56:10;;;;;;;4.03;1.45;;;22.90;48.10;;;;;;5049478;28;20163;-67
2021/11/16 07:58:40;;;;;;;4.88;1.45;;;22.00;49.60;;;;;;5044086;28;20106;-65
2021/11/16 08:01:15;;;;;;;7.03;1.40;;;21.50;50.60;;;;;;5052835;28;20032;-68
2021/11/16 08:03:51;;;;;;;2.67;1.08;;;20.70;52.10;;;;;;5051437;28;20135;-67
2021/11/16 08:06:31;;;;;;;2.83;1.63;;;20.00;54.90;;;;;;5049709;28;20031;-69
2021/11/16 08:09:10;;;;;;;3.95;1.50;;;19.70;54.70;;;;;;5039696;28;20556;-70
2021/11/16 08:11:52;;;;;;;10.15;6.75;;;19.10;55.90;;;;;;5040218;28;20028;-70
2021/11/16 08:14:19;;;;;;;7.27;4.80;;;18.40;58.40;;;;;;5037903;28;20731;-70
2021/11/16 08:16:53;;;;;;;7.78;3.50;;;18.00;60.60;;;;;;5037223;28;20033;-66
2021/11/16 08:19:43;;;;;;;3.67;1.60;;;17.80;60.30;;;;;;5049429;28;20029;-70
2021/11/16 08:22:15;;;;;;;5.63;1.75;;;17.60;61.60;;;;;;5041521;28;20295;-70
2021/11/16 08:24:46;;;;;;;2.97;1.03;;;17.40;62.00;;;;;;5043364;28;20024;-70
2021/11/16 08:27:16;;;;;;;3.05;1.30;;;17.40;62.10;;;;;;5043780;28;20056;-70
2021/11/16 08:29:48;;;;;;;4.63;1.20;;;17.20;62.00;;;;;;5044942;28;20040;-71
2021/11/16 08:32:22;;;;;;;4.18;1.70;;;17.20;64.00;;;;;;5038569;28;20055;-68
2021/11/16 08:34:55;;;;;;;4.45;2.00;;;17.20;63.90;;;;;;5043812;28;20116;-68
2021/11/16 08:37:37;;;;;;;3.60;1.23;;;17.10;63.40;;;;;;5043754;28;20078;-72
2021/11/16 08:40:09;;;;;;;4.17;1.17;;;16.80;64.10;;;;;;5042812;28;20040;-70
2021/11/16 08:42:37;;;;;;;;;;;16.60;65.00;;;;;;5043074;28;20522;-70
2021/11/16 08:45:18;;;;;;;2.95;1.30;;;16.60;66.00;;;;;;5042516;28;20410;-67
2021/11/16 08:47:57;;;;;;;5.35;1.33;;;16.60;66.40;;;;;;5040156;28;20020;-67
2021/11/16 08:50:32;;;;;;;3.22;1.75;;;16.60;66.30;;;;;;5040330;28;20840;-68
2021/11/16 08:53:06;;;;;;;3.63;1.17;;;16.60;66.90;;;;;;5045810;28;20081;-68
2021/11/16 08:55:36;;;;;;;3.58;1.48;;;16.50;66.50;;;;;;5042674;28;20489;-71
2021/11/16 08:58:07;;;;;;;3.00;1.15;;;16.50;67.40;;;;;;5039614;28;20037;-68
2021/11/16 09:00:50;;;;;;;2.03;1.10;;;16.50;66.70;;;;;;5042151;28;20048;-73
2021/11/16 09:03:26;;;;;;;6.55;1.30;;;16.40;67.20;;;;;;5039454;28;20338;-68
2021/11/16 09:05:54;;;;;;;4.18;1.20;;;16.40;67.00;;;;;;5045188;28;20037;-67
2021/11/16 09:08:46;;;;;;;3.47;1.05;;;16.30;68.20;;;;;;5040663;28;20118;-69
2021/11/16 09:11:17;;;;;;;6.47;1.77;;;16.30;67.90;;;;;;5044910;28;20502;-71
2021/11/16 09:13:47;;;;;;;6.13;1.20;;;16.20;68.50;;;;;;5037639;28;20040;-70
2021/11/16 09:16:18;;;;;;;7.03;1.98;;;16.30;68.80;;;;;;5036099;28;20044;-68
2021/11/16 09:18:53;;;;;;;3.30;1.30;;;16.30;69.00;;;;;;5040557;28;20032;-68
2021/11/16 09:21:21;;;;;;;4.80;1.40;;;16.30;69.20;;;;;;5038206;28;20078;-67
2021/11/16 09:24:05;;;;;;;3.20;1.20;;;16.20;69.50;;;;;;5037546;28;20120;-67
2021/11/16 09:26:48;;;;;;;4.90;1.48;;;16.10;70.20;;;;;;5034604;28;20211;-68
2021/11/16 09:29:18;;;;;;;3.10;1.45;;;16.00;71.30;;;;;;5039921;28;20068;-70
2021/11/16 09:31:51;;;;;;;2.67;0.98;;;16.10;71.30;;;;;;5038959;28;20387;-67
2021/11/16 09:34:19;;;;;;;4.50;1.77;;;16.00;71.30;;;;;;5038514;28;20043;-70
2021/11/16 09:37:08;;;;;;;3.40;1.20;;;15.90;71.50;;;;;;5038762;28;20552;-69
2021/11/16 09:39:45;;;;;;;4.43;1.38;;;15.90;73.80;;;;;;5045948;28;20455;-69
2021/11/16 09:42:20;;;;;;;8.30;1.70;;;15.80;73.70;;;;;;5044286;28;20043;-67
2021/11/16 09:44:53;;;;;;;5.20;1.25;;;15.90;73.60;;;;;;5043060;28;20069;-69
2021/11/16 09:47:27;;;;;;;3.40;1.15;;;15.80;73.60;;;;;;5051366;28;20029;-66
2021/11/16 09:50:04;;;;;;;4.28;1.08;;;15.80;73.70;;;;;;5047667;28;20531;-67
2021/11/16 09:52:35;;;;;;;4.28;1.50;;;15.80;73.60;;;;;;5047804;28;20029;-66
2021/11/16 09:55:02;;;;;;;4.13;1.13;;;15.80;75.50;;;;;;5047495;28;20052;-68
2021/11/16 09:57:41;;;;;;;4.60;1.23;;;15.90;75.60;;;;;;5048460;28;20069;-70
2021/11/16 10:00:10;;;;;;;5.60;1.23;;;15.90;75.90;;;;;;5048703;28;20517;-69
2021/11/16 10:02:40;;;;;;;3.45;1.08;;;15.90;74.50;;;;;;5046158;28;20550;-69
2021/11/16 10:05:20;;;;;;;4.15;1.48;;;15.90;76.60;;;;;;5046016;28;20075;-70
2021/11/16 10:07:59;;;;;;;4.43;1.50;;;15.90;75.70;;;;;;5041150;28;20021;-69
2021/11/16 10:10:30;;;;;;;3.42;1.10;;;15.90;73.90;;;;;;5043736;28;20066;-70
2021/11/16 10:13:07;;;;;;;5.70;1.50;;;15.80;77.10;;;;;;5043660;28;20020;-67
2021/11/16 10:15:39;;;;;;;5.05;1.50;;;15.80;75.70;;;;;;5044164;28;20075;-70
2021/11/16 10:18:06;;;;;;;4.45;1.52;;;15.70;76.00;;;;;;5046092;28;20025;-71
2021/11/16 10:20:37;;;;;;;4.00;1.00;;;15.70;77.30;;;;;;5045718;28;20037;-69
2021/11/16 10:23:07;;;;;;;2.97;1.20;;;15.70;75.90;;;;;;5042760;28;20029;-68
2021/11/16 10:25:39;;;;;;;7.70;1.33;;;15.70;76.80;;;;;;5046643;28;20052;-68
2021/11/16 10:28:09;;;;;;;4.55;1.65;;;15.70;80.30;;;;;;5046041;28;20074;-74
2021/11/16 10:30:37;;;;;;;2.42;1.30;;;15.80;77.20;;;;;;5044213;28;20020;-69
2021/11/16 10:33:08;;;;;;;4.85;1.25;;;15.80;76.70;;;;;;5047744;28;20036;-72
2021/11/16 10:35:56;;;;;;;2.22;0.98;;;15.80;78.30;;;;;;5051041;28;20029;-73
2021/11/16 10:38:39;;;;;;;4.05;1.00;;;15.80;78.50;;;;;;5047957;28;20902;-72
2021/11/16 10:41:11;;;;;;;3.75;1.23;;;15.90;77.60;;;;;;5041686;28;20029;-68
2021/11/16 10:44:02;;;;;;;6.20;2.05;;;15.90;76.50;;;;;;5048819;28;20035;-72
2021/11/16 10:46:32;;;;;;;3.35;1.10;;;15.80;77.00;;;;;;5046660;28;20432;-71
2021/11/16 10:49:05;;;;;;;3.33;1.42;;;15.70;78.20;;;;;;5044250;28;20031;-72
2021/11/16 10:51:32;;;;;;;;;;;15.70;78.60;;;;;;5044741;28;20079;-70
2021/11/16 10:54:01;;;;;;;5.22;1.60;;;15.70;77.90;;;;;;5043314;28;19947;-66
2021/11/16 10:56:32;;;;;;;4.15;1.48;;;15.70;77.10;;;;;;5044864;28;20051;-70
2021/11/16 10:59:13;;;;;;;3.65;1.33;;;15.70;79.30;;;;;;5043632;28;20041;-66
2021/11/16 11:01:47;;;;;;;3.30;1.42;;;15.60;78.30;;;;;;5051058;28;20033;-71
2021/11/16 11:04:17;;;;;;;3.85;1.00;;;15.60;79.10;;;;;;5045662;28;20135;-67
2021/11/16 11:06:44;;;;;;;5.38;1.10;;;15.70;79.30;;;;;;5031613;28;20040;-69
2021/11/16 11:09:14;;;;;;;3.03;0.70;;;15.70;78.50;;;;;;5047809;28;20063;-69
2021/11/16 11:11:46;;;;;;;2.88;1.10;;;15.60;79.30;;;;;;5048398;28;20491;-67
2021/11/16 11:14:38;;;;;;;3.83;1.17;;;15.60;79.80;;;;;;5044934;28;20048;-70
2021/11/16 11:17:09;;;;;;;3.92;1.08;;;15.50;80.40;;;;;;5040657;28;20028;-71
2021/11/16 11:19:40;;;;;;;3.78;1.25;;;15.50;80.10;;;;;;5046048;28;20112;-71
2021/11/16 11:22:29;;;;;;;2.17;0.80;;;15.60;79.60;;;;;;5046061;28;20115;-69
2021/11/16 11:25:11;;;;;;;3.00;1.05;;;15.50;82.00;;;;;;5045217;28;20017;-72
2021/11/16 11:30:15;;;;;;;3.70;1.00;;;15.10;83.00;;;;;;5045359;28;20085;-68
2021/11/16 11:32:56;;;;;;;2.75;0.90;;;15.00;83.50;;;;;;5046677;28;20202;-73
2021/11/16 11:35:28;;;;;;;4.03;0.90;;;14.80;83.90;;;;;;5042158;28;20037;-69
2021/11/16 11:37:59;;;;;;;5.30;1.05;;;14.60;85.70;;;;;;5046737;28;20032;-70
2021/11/16 11:40:31;;;;;;;3.35;1.00;;;14.50;86.90;;;;;;5046518;28;20397;-73
2021/11/16 11:43:01;;;;;;;2.77;0.93;;;14.30;89.10;;;;;;5046198;28;20056;-74
2021/11/16 11:45:40;;;;;;;4.55;1.83;;;14.20;90.00;;;;;;5044274;28;20269;-75
2021/11/16 11:48:33;;;;;;;1.90;1.03;;;14.10;90.90;;;;;;4696218;28;10000155;-74
2021/11/16 11:51:01;;;;;;;;;;;14.00;91.50;;;;;;5043914;28;20870;-74
2021/11/16 11:53:34;;;;;;;2.97;1.30;;;14.00;92.20;;;;;;5048232;28;20026;-68
2021/11/16 11:56:05;;;;;;;2.80;1.20;;;13.80;92.80;;;;;;5048103;28;20033;-74
2021/11/16 11:58:37;;;;;;;5.57;1.52;;;13.70;93.30;;;;;;5044694;28;20023;-68
2021/11/16 12:01:14;;;;;;;8.20;1.83;;;13.60;93.70;;;;;;5046628;28;20084;-72
2021/11/16 12:03:45;;;;;;;2.08;1.00;;;13.50;94.10;;;;;;5047605;28;20108;-73
2021/11/16 12:06:12;;;;;;;3.85;1.10;;;13.40;94.70;;;;;;5045601;28;20017;-73
2021/11/16 12:08:39;;;;;;;2.95;1.50;;;13.30;96.10;;;;;;5043522;28;20028;-68
2021/11/16 12:11:11;;;;;;;2.80;1.30;;;13.20;97.30;;;;;;5048490;28;20032;-68
2021/11/16 12:13:39;;;;;;;4.25;1.25;;;13.10;97.60;;;;;;5047496;28;20032;-68
2021/11/16 12:16:10;;;;;;;11.13;1.98;;;13.00;97.50;;;;;;5044268;28;20029;-73
2021/11/16 12:18:48;;;;;;;11.48;2.17;;;13.00;98.00;;;;;;5045820;28;20029;-68
2021/11/16 12:21:45;;;;;;;12.20;1.92;;;13.10;98.00;;;;;;5045640;28;20025;-72
2021/11/16 12:24:18;;;;;;;7.57;2.15;;;13.10;98.00;;;;;;5046439;28;20391;-68
2021/11/16 12:26:54;;;;;;;12.93;2.30;;;13.00;99.50;;;;;;5065164;28;20025;-68
2021/11/16 12:29:24;;;;;;;13.00;2.90;;;12.90;99.70;;;;;;5046877;28;20036;-67
2021/11/16 12:31:53;;;;;;;11.00;2.22;;;12.90;99.50;;;;;;5047268;28;20039;-72
2021/11/16 12:34:52;;;;;;;10.43;2.15;;;12.90;99.90;;;;;;5046933;28;20059;-73
2021/11/16 12:37:43;;;;;;;12.23;2.40;;;12.90;99.60;;;;;;5042704;28;20037;-68
2021/11/16 12:40:15;;;;;;;16.60;4.47;;;12.90;99.90;;;;;;5043749;28;20033;-68
2021/11/16 12:43:00;;;;;;;;;;;12.90;99.90;;;;;;5048349;28;20573;-68
2021/11/16 12:45:42;;;;;;;10.13;2.55;;;12.90;99.90;;;;;;5044611;28;19908;-73
2021/11/16 12:48:12;;;;;;;15.20;3.30;;;12.80;99.90;;;;;;5060754;28;20807;-73
2021/11/16 12:50:59;;;;;;;6.72;2.22;;;12.80;99.90;;;;;;5049407;28;20060;-67
2021/11/16 12:53:47;;;;;;;16.58;2.80;;;12.70;99.90;;;;;;5045842;28;20051;-67
2021/11/16 12:56:15;;;;;;;10.20;2.00;;;12.70;99.90;;;;;;5046385;28;20036;-73
2021/11/16 12:58:58;;;;;;;5.03;2.05;;;12.60;99.90;;;;;;5047387;28;20021;-68
2021/11/16 13:01:45;;;;;;;9.50;2.92;;;12.50;99.90;;;;;;5043400;28;20453;-68
2021/11/16 13:04:15;;;;;;;13.85;2.55;;;12.40;99.90;;;;;;5044855;28;20104;-69
2021/11/16 13:07:03;;;;;;;14.82;3.10;;;12.50;99.90;;;;;;5047187;28;20071;-69
2021/11/16 13:09:54;;;;;;;10.02;2.28;;;12.50;99.90;;;;;;5043496;28;20032;-72
2021/11/16 13:12:41;;;;;;;8.73;2.47;;;12.40;99.90;;;;;;5048313;28;20029;-72
2021/11/16 13:15:36;;;;;;;12.05;3.10;;;12.30;99.90;;;;;;5042095;28;20116;-71
2021/11/16 13:18:04;;;;;;;12.15;2.90;;;12.20;99.90;;;;;;5044529;28;20021;-67
2021/11/16 13:20:50;;;;;;;8.90;3.08;;;12.10;99.90;;;;;;5047269;28;20040;-69
2021/11/16 13:23:57;;;;;;;12.27;3.03;;;12.10;99.90;;;;;;5045013;28;20445;-69
2021/11/16 13:26:27;;;;;;;7.78;2.33;;;12.00;99.90;;;;;;5046571;28;20025;-71